sensor_id;sensor_type;location;lat;lon;timestamp;pressure;altitude;pressure_sealevel;temperature;humidity
76011;BME280;64701;43.536;1.478;2022-10-30T00:00:16;99626.00;;;18.18;81.79
76011;BME280;64701;43.536;1.478;2022-10-30T00:02:42;99623.66;;;18.22;81.57
76011;BME280;64701;43.536;1.478;2022-10-30T00:05:07;99626.34;;;18.22;81.73
76011;BME280;64701;43.536;1.478;2022-10-30T00:07:33;99637.88;;;18.22;81.86
76011;BME280;64701;43.536;1.478;2022-10-30T00:09:58;99642.88;;;18.19;81.97
76011;BME280;64701;43.536;1.478;2022-10-30T00:12:23;99641.25;;;18.18;81.75
76011;BME280;64701;43.536;1.478;2022-10-30T00:14:48;99641.13;;;18.24;81.38
76011;BME280;64701;43.536;1.478;2022-10-30T00:17:14;99641.94;;;18.25;81.36
76011;BME280;64701;43.536;1.478;2022-10-30T00:19:39;99649.88;;;18.20;81.79
76011;BME280;64701;43.536;1.478;2022-10-30T00:22:04;99642.66;;;18.20;81.64
76011;BME280;64701;43.536;1.478;2022-10-30T00:24:29;99633.81;;;18.20;81.63
76011;BME280;64701;43.536;1.478;2022-10-30T00:26:55;99642.75;;;18.25;81.38
76011;BME280;64701;43.536;1.478;2022-10-30T00:29:20;99636.03;;;18.23;81.46
76011;BME280;64701;43.536;1.478;2022-10-30T00:31:49;99637.38;;;18.25;81.26
76011;BME280;64701;43.536;1.478;2022-10-30T00:34:14;99650.22;;;18.23;81.50
76011;BME280;64701;43.536;1.478;2022-10-30T00:36:39;99637.38;;;18.25;81.23
76011;BME280;64701;43.536;1.478;2022-10-30T00:39:05;99639.47;;;18.23;81.50
76011;BME280;64701;43.536;1.478;2022-10-30T00:41:30;99634.13;;;18.23;81.39
76011;BME280;64701;43.536;1.478;2022-10-30T00:43:55;99632.03;;;18.25;81.28
76011;BME280;64701;43.536;1.478;2022-10-30T00:46:34;99647.53;;;18.23;81.84
76011;BME280;64701;43.536;1.478;2022-10-30T00:51:35;99640.66;;;18.27;81.47
76011;BME280;64701;43.536;1.478;2022-10-30T00:54:02;99653.00;;;18.28;81.49
76011;BME280;64701;43.536;1.478;2022-10-30T00:56:29;99650.22;;;18.23;81.73
76011;BME280;64701;43.536;1.478;2022-10-30T00:59:02;99642.97;;;18.24;81.64
76011;BME280;64701;43.536;1.478;2022-10-30T01:01:31;99641.94;;;18.25;81.65
76011;BME280;64701;43.536;1.478;2022-10-30T01:03:58;99646.97;;;18.21;82.01
76011;BME280;64701;43.536;1.478;2022-10-30T01:06:25;99627.63;;;18.19;82.00
76011;BME280;64701;43.536;1.478;2022-10-30T01:08:51;99656.28;;;18.19;82.03
76011;BME280;64701;43.536;1.478;2022-10-30T01:11:18;99642.06;;;18.18;82.10
76011;BME280;64701;43.536;1.478;2022-10-30T01:13:43;99633.81;;;18.20;81.92
76011;BME280;64701;43.536;1.478;2022-10-30T01:24:18;99640.22;;;18.19;82.31
76011;BME280;64701;43.536;1.478;2022-10-30T01:27:34;99638.84;;;18.16;82.41
76011;BME280;64701;43.536;1.478;2022-10-30T01:32:17;99619.00;;;18.17;82.57
76011;BME280;64701;43.536;1.478;2022-10-30T01:39:47;99609.59;;;18.15;82.78
76011;BME280;64701;43.536;1.478;2022-10-30T01:44:56;99607.50;;;18.17;82.36
76011;BME280;64701;43.536;1.478;2022-10-30T01:47:26;99615.28;;;18.18;82.24
76011;BME280;64701;43.536;1.478;2022-10-30T01:52:33;99615.28;;;18.18;82.22
76011;BME280;64701;43.536;1.478;2022-10-30T01:55:10;99599.69;;;18.15;82.44
76011;BME280;64701;43.536;1.478;2022-10-30T01:58:02;99624.34;;;18.17;82.33
76011;BME280;64701;43.536;1.478;2022-10-30T02:00:24;99610.16;;;18.17;82.26
76011;BME280;64701;43.536;1.478;2022-10-30T02:02:51;99613.63;;;18.17;82.07
76011;BME280;64701;43.536;1.478;2022-10-30T02:05:24;99606.09;;;18.14;82.36
76011;BME280;64701;43.536;1.478;2022-10-30T02:07:51;99607.13;;;18.13;82.31
76011;BME280;64701;43.536;1.478;2022-10-30T02:10:16;99607.72;;;18.15;82.23
76011;BME280;64701;43.536;1.478;2022-10-30T02:12:41;99599.69;;;18.15;82.31
76011;BME280;64701;43.536;1.478;2022-10-30T02:15:07;99599.19;;;18.18;82.15
76011;BME280;64701;43.536;1.478;2022-10-30T02:17:32;99594.31;;;18.15;82.23
76011;BME280;64701;43.536;1.478;2022-10-30T02:19:58;99584.06;;;18.12;82.55
76011;BME280;64701;43.536;1.478;2022-10-30T02:22:23;99588.38;;;18.13;82.52
76011;BME280;64701;43.536;1.478;2022-10-30T02:24:49;99586.28;;;18.15;82.38
76011;BME280;64701;43.536;1.478;2022-10-30T02:27:14;99595.69;;;18.18;82.24
76011;BME280;64701;43.536;1.478;2022-10-30T02:29:39;99590.09;;;18.19;82.33
76011;BME280;64701;43.536;1.478;2022-10-30T02:32:04;99601.31;;;18.16;82.60
76011;BME280;64701;43.536;1.478;2022-10-30T02:34:30;99583.38;;;18.17;82.35
76011;BME280;64701;43.536;1.478;2022-10-30T02:36:55;99596.78;;;18.17;82.33
76011;BME280;64701;43.536;1.478;2022-10-30T02:39:20;99601.31;;;18.16;82.53
76011;BME280;64701;43.536;1.478;2022-10-30T02:41:46;99610.41;;;18.15;82.53
76011;BME280;64701;43.536;1.478;2022-10-30T02:44:11;99611.78;;;18.18;82.37
76011;BME280;64701;43.536;1.478;2022-10-30T02:46:37;99603.19;;;18.16;82.56
76011;BME280;64701;43.536;1.478;2022-10-30T02:49:02;99600.72;;;18.14;82.29
76011;BME280;64701;43.536;1.478;2022-10-30T02:51:29;99606.81;;;18.10;82.77
76011;BME280;64701;43.536;1.478;2022-10-30T02:53:55;99607.13;;;18.13;82.61
76011;BME280;64701;43.536;1.478;2022-10-30T02:56:20;99603.41;;;18.14;82.58
76011;BME280;64701;43.536;1.478;2022-10-30T02:58:45;99604.47;;;18.13;82.60
76011;BME280;64701;43.536;1.478;2022-10-30T03:01:12;99595.59;;;18.13;82.59
76011;BME280;64701;43.536;1.478;2022-10-30T03:03:38;99593.19;;;18.11;82.67
76011;BME280;64701;43.536;1.478;2022-10-30T03:06:04;99602.25;;;18.10;82.77
76011;BME280;64701;43.536;1.478;2022-10-30T03:08:30;99606.00;;;18.09;83.06
76011;BME280;64701;43.536;1.478;2022-10-30T03:10:59;99599.00;;;18.08;82.91
76011;BME280;64701;43.536;1.478;2022-10-30T03:13:26;99602.00;;;18.12;82.73
76011;BME280;64701;43.536;1.478;2022-10-30T03:15:51;99596.09;;;18.10;82.89
76011;BME280;64701;43.536;1.478;2022-10-30T03:18:16;99606.31;;;18.13;82.78
76011;BME280;64701;43.536;1.478;2022-10-30T03:20:41;99599.31;;;18.12;82.79
76011;BME280;64701;43.536;1.478;2022-10-30T03:23:07;99595.38;;;18.14;82.79
76011;BME280;64701;43.536;1.478;2022-10-30T03:25:32;99602.00;;;18.12;82.90
76011;BME280;64701;43.536;1.478;2022-10-30T03:27:57;99598.88;;;18.15;82.65
76011;BME280;64701;43.536;1.478;2022-10-30T03:30:22;99597.47;;;18.12;82.78
76011;BME280;64701;43.536;1.478;2022-10-30T03:32:48;99600.13;;;18.12;83.00
76011;BME280;64701;43.536;1.478;2022-10-30T03:35:13;99596.91;;;18.10;83.10
76011;BME280;64701;43.536;1.478;2022-10-30T03:37:38;99591.53;;;18.10;83.11
76011;BME280;64701;43.536;1.478;2022-10-30T03:40:04;99596.91;;;18.10;83.02
76011;BME280;64701;43.536;1.478;2022-10-30T03:42:29;99596.31;;;18.08;83.13
76011;BME280;64701;43.536;1.478;2022-10-30T03:44:54;99596.91;;;18.10;83.04
76011;BME280;64701;43.536;1.478;2022-10-30T03:47:19;99583.75;;;18.09;83.17
76011;BME280;64701;43.536;1.478;2022-10-30T03:49:45;99593.19;;;18.11;82.85
76011;BME280;64701;43.536;1.478;2022-10-30T03:52:10;99592.00;;;18.07;83.27
76011;BME280;64701;43.536;1.478;2022-10-30T03:54:35;99591.19;;;18.07;83.17
76011;BME280;64701;43.536;1.478;2022-10-30T03:57:00;99594.22;;;18.10;82.91
76011;BME280;64701;43.536;1.478;2022-10-30T03:59:26;99595.84;;;18.11;82.86
76011;BME280;64701;43.536;1.478;2022-10-30T04:01:51;99593.63;;;18.08;83.02
76011;BME280;64701;43.536;1.478;2022-10-30T04:04:16;99600.63;;;18.09;82.99
76011;BME280;64701;43.536;1.478;2022-10-30T04:06:41;99608.09;;;18.07;83.02
76011;BME280;64701;43.536;1.478;2022-10-30T04:09:07;99599.50;;;18.05;83.12
76011;BME280;64701;43.536;1.478;2022-10-30T04:11:32;99607.28;;;18.07;83.10
76011;BME280;64701;43.536;1.478;2022-10-30T04:13:57;99615.56;;;18.05;83.19
76011;BME280;64701;43.536;1.478;2022-10-30T04:16:23;99613.69;;;18.06;83.01
76011;BME280;64701;43.536;1.478;2022-10-30T04:18:48;99614.41;;;18.01;83.18
76011;BME280;64701;43.536;1.478;2022-10-30T04:21:13;99614.16;;;18.03;83.17
76011;BME280;64701;43.536;1.478;2022-10-30T04:23:38;99616.03;;;18.02;83.16
76011;BME280;64701;43.536;1.478;2022-10-30T04:26:03;99627.69;;;17.96;83.41
76011;BME280;64701;43.536;1.478;2022-10-30T04:28:29;99628.84;;;18.00;83.28
76011;BME280;64701;43.536;1.478;2022-10-30T04:30:54;99618.13;;;18.00;83.14
76011;BME280;64701;43.536;1.478;2022-10-30T04:33:20;99612.31;;;18.03;83.05
76011;BME280;64701;43.536;1.478;2022-10-30T04:35:45;99616.25;;;18.01;83.20
76011;BME280;64701;43.536;1.478;2022-10-30T04:38:11;99615.13;;;17.97;83.36
76011;BME280;64701;43.536;1.478;2022-10-30T04:40:39;99611.16;;;17.99;83.23
76011;BME280;64701;43.536;1.478;2022-10-30T04:43:05;99606.84;;;17.98;83.17
76011;BME280;64701;43.536;1.478;2022-10-30T04:45:31;99614.06;;;17.98;83.43
76011;BME280;64701;43.536;1.478;2022-10-30T04:48:03;99612.44;;;17.97;83.40
76011;BME280;64701;43.536;1.478;2022-10-30T04:50:29;99600.91;;;17.96;83.42
76011;BME280;64701;43.536;1.478;2022-10-30T04:52:58;99600.44;;;17.99;83.09
76011;BME280;64701;43.536;1.478;2022-10-30T04:55:24;99601.72;;;17.97;83.26
76011;BME280;64701;43.536;1.478;2022-10-30T04:57:49;99600.91;;;17.96;83.29
76011;BME280;64701;43.536;1.478;2022-10-30T05:00:14;99604.16;;;17.98;83.11
76011;BME280;64701;43.536;1.478;2022-10-30T05:02:39;99606.75;;;17.93;83.53
76011;BME280;64701;43.536;1.478;2022-10-30T05:05:05;99602.66;;;17.90;83.48
76011;BME280;64701;43.536;1.478;2022-10-30T05:07:30;99603.81;;;17.94;83.42
76011;BME280;64701;43.536;1.478;2022-10-30T05:09:55;99610.00;;;17.95;83.25
76011;BME280;64701;43.536;1.478;2022-10-30T05:12:21;99607.78;;;17.92;83.45
76011;BME280;64701;43.536;1.478;2022-10-30T05:14:46;99606.75;;;17.93;83.24
76011;BME280;64701;43.536;1.478;2022-10-30T05:17:11;99614.06;;;17.98;83.09
76011;BME280;64701;43.536;1.478;2022-10-30T05:19:36;99602.53;;;17.97;82.86
76011;BME280;64701;43.536;1.478;2022-10-30T05:22:02;99603.34;;;17.98;82.99
76011;BME280;64701;43.536;1.478;2022-10-30T05:24:27;99606.16;;;17.91;83.55
76011;BME280;64701;43.536;1.478;2022-10-30T05:26:52;99601.84;;;17.90;83.48
76011;BME280;64701;43.536;1.478;2022-10-30T05:29:17;99599.66;;;17.87;83.84
76011;BME280;64701;43.536;1.478;2022-10-30T05:31:45;99586.59;;;17.90;83.82
76011;BME280;64701;43.536;1.478;2022-10-30T05:34:10;99577.03;;;17.94;83.30
76011;BME280;64701;43.536;1.478;2022-10-30T05:36:35;99583.19;;;17.95;83.30
76011;BME280;64701;43.536;1.478;2022-10-30T05:39:00;99582.06;;;17.91;83.83
76011;BME280;64701;43.536;1.478;2022-10-30T05:41:27;99579.28;;;17.86;84.34
76011;BME280;64701;43.536;1.478;2022-10-30T05:43:52;99578.22;;;17.87;84.33
76011;BME280;64701;43.536;1.478;2022-10-30T05:46:17;99580.41;;;17.90;84.11
76011;BME280;64701;43.536;1.478;2022-10-30T05:48:43;99580.41;;;17.90;84.06
76011;BME280;64701;43.536;1.478;2022-10-30T05:51:08;99573.91;;;17.86;84.53
76011;BME280;64701;43.536;1.478;2022-10-30T05:53:33;99575.06;;;17.90;84.14
76011;BME280;64701;43.536;1.478;2022-10-30T05:55:58;99574.47;;;17.88;84.14
76011;BME280;64701;43.536;1.478;2022-10-30T05:58:24;99576.00;;;17.84;84.37
76011;BME280;64701;43.536;1.478;2022-10-30T06:00:50;99563.91;;;17.81;84.27
76011;BME280;64701;43.536;1.478;2022-10-30T06:03:15;99573.81;;;17.81;84.57
76011;BME280;64701;43.536;1.478;2022-10-30T06:05:42;99568.34;;;17.76;84.93
76011;BME280;64701;43.536;1.478;2022-10-30T06:08:08;99569.88;;;17.72;85.32
76011;BME280;64701;43.536;1.478;2022-10-30T06:10:33;99564.28;;;17.73;85.21
76011;BME280;64701;43.536;1.478;2022-10-30T06:12:59;99569.16;;;17.76;84.99
76011;BME280;64701;43.536;1.478;2022-10-30T06:15:25;99567.28;;;17.77;85.18
76011;BME280;64701;43.536;1.478;2022-10-30T06:17:51;99576.50;;;17.81;84.84
76011;BME280;64701;43.536;1.478;2022-10-30T06:20:17;99569.97;;;17.77;85.49
76011;BME280;64701;43.536;1.478;2022-10-30T06:25:37;99581.16;;;17.74;85.38
76011;BME280;64701;43.536;1.478;2022-10-30T06:28:02;99583.03;;;17.73;85.65
76011;BME280;64701;43.536;1.478;2022-10-30T06:30:28;99590.25;;;17.73;85.76
76011;BME280;64701;43.536;1.478;2022-10-30T06:32:57;99592.34;;;17.71;85.88
76011;BME280;64701;43.536;1.478;2022-10-30T06:35:22;99581.16;;;17.74;85.70
76011;BME280;64701;43.536;1.478;2022-10-30T06:37:48;99591.28;;;17.72;86.04
76011;BME280;64701;43.536;1.478;2022-10-30T06:40:13;99580.59;;;17.72;86.08
76011;BME280;64701;43.536;1.478;2022-10-30T06:42:43;99597.25;;;17.74;85.69
76011;BME280;64701;43.536;1.478;2022-10-30T06:45:09;99603.75;;;17.78;85.73
76011;BME280;64701;43.536;1.478;2022-10-30T06:47:35;99600.97;;;17.73;85.96
76011;BME280;64701;43.536;1.478;2022-10-30T06:50:00;99601.53;;;17.75;85.71
76011;BME280;64701;43.536;1.478;2022-10-30T06:52:25;99602.69;;;17.79;85.63
76011;BME280;64701;43.536;1.478;2022-10-30T06:54:51;99605.69;;;17.82;85.64
76011;BME280;64701;43.536;1.478;2022-10-30T06:57:16;99601.16;;;17.83;85.77
76011;BME280;64701;43.536;1.478;2022-10-30T06:59:41;99615.59;;;17.82;86.05
76011;BME280;64701;43.536;1.478;2022-10-30T07:02:08;99618.88;;;17.84;85.81
76011;BME280;64701;43.536;1.478;2022-10-30T07:04:33;99616.19;;;17.84;86.06
76011;BME280;64701;43.536;1.478;2022-10-30T07:06:59;99618.88;;;17.84;86.28
76011;BME280;64701;43.536;1.478;2022-10-30T07:09:24;99608.75;;;17.86;86.07
76011;BME280;64701;43.536;1.478;2022-10-30T07:11:50;99612.78;;;17.88;85.81
76011;BME280;64701;43.536;1.478;2022-10-30T07:14:15;99613.72;;;17.94;85.42
76011;BME280;64701;43.536;1.478;2022-10-30T07:16:40;99625.97;;;17.90;86.03
76011;BME280;64701;43.536;1.478;2022-10-30T07:19:05;99613.59;;;17.89;86.04
76011;BME280;64701;43.536;1.478;2022-10-30T07:21:31;99615.84;;;17.92;85.95
76011;BME280;64701;43.536;1.478;2022-10-30T07:23:56;99626.06;;;17.95;85.81
76011;BME280;64701;43.536;1.478;2022-10-30T07:26:21;99626.06;;;17.95;85.64
76011;BME280;64701;43.536;1.478;2022-10-30T07:28:46;99608.47;;;17.99;85.62
76011;BME280;64701;43.536;1.478;2022-10-30T07:31:12;99620.81;;;18.00;85.50
76011;BME280;64701;43.536;1.478;2022-10-30T07:33:37;99619.75;;;18.01;85.24
76011;BME280;64701;43.536;1.478;2022-10-30T07:36:02;99626.03;;;18.07;85.02
76011;BME280;64701;43.536;1.478;2022-10-30T07:38:27;99634.44;;;18.10;84.80
76011;BME280;64701;43.536;1.478;2022-10-30T07:40:53;99630.22;;;18.14;84.34
76011;BME280;64701;43.536;1.478;2022-10-30T07:43:18;99623.66;;;18.22;83.83
76011;BME280;64701;43.536;1.478;2022-10-30T07:45:44;99636.13;;;18.28;83.67
76011;BME280;64701;43.536;1.478;2022-10-30T07:48:09;99649.94;;;18.36;83.44
76011;BME280;64701;43.536;1.478;2022-10-30T07:50:34;99647.34;;;18.42;82.98
76011;BME280;64701;43.536;1.478;2022-10-30T07:53:00;99662.97;;;18.45;82.87
76011;BME280;64701;43.536;1.478;2022-10-30T07:55:25;99660.69;;;18.53;82.67
76011;BME280;64701;43.536;1.478;2022-10-30T07:57:50;99673.63;;;18.68;82.27
76011;BME280;64701;43.536;1.478;2022-10-30T08:00:16;99678.19;;;18.84;82.18
76011;BME280;64701;43.536;1.478;2022-10-30T08:02:41;99680.59;;;18.97;81.59
76011;BME280;64701;43.536;1.478;2022-10-30T08:05:06;99687.66;;;19.03;81.31
76011;BME280;64701;43.536;1.478;2022-10-30T08:07:32;99696.63;;;19.09;81.09
76011;BME280;64701;43.536;1.478;2022-10-30T08:09:58;99682.63;;;19.07;81.12
76011;BME280;64701;43.536;1.478;2022-10-30T08:12:24;99689.38;;;19.09;81.31
76011;BME280;64701;43.536;1.478;2022-10-30T08:14:50;99678.72;;;19.14;81.10
76011;BME280;64701;43.536;1.478;2022-10-30T08:17:16;99675.97;;;19.09;80.97
76011;BME280;64701;43.536;1.478;2022-10-30T08:19:41;99672.06;;;19.17;81.05
76011;BME280;64701;43.536;1.478;2022-10-30T08:22:07;99666.53;;;19.24;80.54
76011;BME280;64701;43.536;1.478;2022-10-30T08:24:32;99666.38;;;19.30;80.42
76011;BME280;64701;43.536;1.478;2022-10-30T08:26:58;99665.63;;;19.35;79.90
76011;BME280;64701;43.536;1.478;2022-10-30T08:29:23;99659.97;;;19.48;80.02
76011;BME280;64701;43.536;1.478;2022-10-30T08:31:48;99667.34;;;19.58;79.14
76011;BME280;64701;43.536;1.478;2022-10-30T08:34:14;99671.81;;;19.69;78.83
76011;BME280;64701;43.536;1.478;2022-10-30T08:36:39;99685.13;;;19.80;78.83
76011;BME280;64701;43.536;1.478;2022-10-30T08:39:04;99676.16;;;19.91;78.44
76011;BME280;64701;43.536;1.478;2022-10-30T08:41:30;99676.78;;;19.98;77.47
76011;BME280;64701;43.536;1.478;2022-10-30T08:43:55;99679.06;;;20.07;76.92
76011;BME280;64701;43.536;1.478;2022-10-30T08:46:20;99686.28;;;20.28;77.27
76011;BME280;64701;43.536;1.478;2022-10-30T08:48:45;99680.91;;;20.71;74.60
76011;BME280;64701;43.536;1.478;2022-10-30T08:51:11;99685.28;;;21.73;71.22
76011;BME280;64701;43.536;1.478;2022-10-30T08:53:36;99694.31;;;22.66;69.28
76011;BME280;64701;43.536;1.478;2022-10-30T08:56:01;99695.22;;;22.87;66.23
76011;BME280;64701;43.536;1.478;2022-10-30T08:58:27;99700.59;;;22.10;68.54
76011;BME280;64701;43.536;1.478;2022-10-30T09:00:52;99716.56;;;21.79;70.51
76011;BME280;64701;43.536;1.478;2022-10-30T09:03:17;99697.97;;;21.83;70.18
76011;BME280;64701;43.536;1.478;2022-10-30T09:05:43;99710.81;;;22.08;71.25
76011;BME280;64701;43.536;1.478;2022-10-30T09:08:08;99707.47;;;22.48;71.11
76011;BME280;64701;43.536;1.478;2022-10-30T09:10:33;99718.53;;;22.41;68.99
76011;BME280;64701;43.536;1.478;2022-10-30T09:12:58;99719.03;;;22.28;68.39
76011;BME280;64701;43.536;1.478;2022-10-30T09:15:26;99721.13;;;22.16;67.81
76011;BME280;64701;43.536;1.478;2022-10-30T09:17:58;99715.75;;;22.93;68.74
76011;BME280;64701;43.536;1.478;2022-10-30T09:20:23;99726.56;;;23.13;67.06
76011;BME280;64701;43.536;1.478;2022-10-30T09:22:49;99729.28;;;23.24;65.91
76011;BME280;64701;43.536;1.478;2022-10-30T09:25:14;99729.59;;;23.52;65.67
76011;BME280;64701;43.536;1.478;2022-10-30T09:27:40;99727.41;;;23.75;66.00
76011;BME280;64701;43.536;1.478;2022-10-30T09:30:06;99732.53;;;23.61;64.57
76011;BME280;64701;43.536;1.478;2022-10-30T09:32:31;99731.19;;;23.38;64.65
76011;BME280;64701;43.536;1.478;2022-10-30T09:34:56;99742.81;;;23.29;64.44
76011;BME280;64701;43.536;1.478;2022-10-30T09:37:22;99745.47;;;23.03;64.04
76011;BME280;64701;43.536;1.478;2022-10-30T09:39:48;99733.84;;;23.03;64.23
76011;BME280;64701;43.536;1.478;2022-10-30T09:42:20;99765.50;;;23.17;64.98
76011;BME280;64701;43.536;1.478;2022-10-30T10:04:55;99783.84;;;24.17;59.68
76011;BME280;64701;43.536;1.478;2022-10-30T10:07:28;99790.31;;;24.41;60.79
76011;BME280;64701;43.536;1.478;2022-10-30T10:09:58;99783.34;;;24.94;62.51
76011;BME280;64701;43.536;1.478;2022-10-30T10:14:52;99799.53;;;25.48;57.63
76011;BME280;64701;43.536;1.478;2022-10-30T10:17:23;99796.59;;;25.79;57.63
76011;BME280;64701;43.536;1.478;2022-10-30T10:20:00;99806.50;;;25.93;57.49
76011;BME280;64701;43.536;1.478;2022-10-30T10:22:28;99806.97;;;25.72;56.19
76011;BME280;64701;43.536;1.478;2022-10-30T10:24:56;99814.06;;;25.63;56.61
76011;BME280;64701;43.536;1.478;2022-10-30T10:29:59;99801.88;;;25.94;58.29
76011;BME280;64701;43.536;1.478;2022-10-30T10:32:31;99807.03;;;26.24;58.37
76011;BME280;64701;43.536;1.478;2022-10-30T10:51:02;99819.19;;;25.98;55.26
76011;BME280;64701;43.536;1.478;2022-10-30T10:56:20;99825.19;;;25.22;55.22
76011;BME280;64701;43.536;1.478;2022-10-30T10:58:50;99830.28;;;24.69;57.09
76011;BME280;64701;43.536;1.478;2022-10-30T11:01:18;99828.19;;;24.51;56.70
76011;BME280;64701;43.536;1.478;2022-10-30T11:06:17;99831.50;;;24.13;58.24
76011;BME280;64701;43.536;1.478;2022-10-30T11:08:44;99827.44;;;24.10;57.58
76011;BME280;64701;43.536;1.478;2022-10-30T11:11:09;99810.69;;;24.18;58.24
76011;BME280;64701;43.536;1.478;2022-10-30T11:13:41;99809.84;;;24.02;58.13
76011;BME280;64701;43.536;1.478;2022-10-30T11:18:53;99817.69;;;23.99;57.95
76011;BME280;64701;43.536;1.478;2022-10-30T11:21:23;99832.31;;;23.98;57.52
76011;BME280;64701;43.536;1.478;2022-10-30T11:23:48;99814.44;;;24.02;57.78
76011;BME280;64701;43.536;1.478;2022-10-30T11:31:29;99806.44;;;24.71;56.07
76011;BME280;64701;43.536;1.478;2022-10-30T11:36:38;99794.16;;;24.25;57.36
76011;BME280;64701;43.536;1.478;2022-10-30T11:44:37;99810.41;;;23.49;59.10
76011;BME280;64701;43.536;1.478;2022-10-30T11:47:03;99813.63;;;23.46;59.24
76011;BME280;64701;43.536;1.478;2022-10-30T11:49:51;99810.41;;;23.54;58.38
76011;BME280;64701;43.536;1.478;2022-10-30T11:52:18;99818.16;;;23.30;59.12
76011;BME280;64701;43.536;1.478;2022-10-30T11:54:49;99822.75;;;23.14;58.94
76011;BME280;64701;43.536;1.478;2022-10-30T11:59:45;99823.31;;;23.16;59.69
76011;BME280;64701;43.536;1.478;2022-10-30T12:02:21;99819.28;;;23.29;59.37
76011;BME280;64701;43.536;1.478;2022-10-30T12:04:49;99814.44;;;23.41;59.18
76011;BME280;64701;43.536;1.478;2022-10-30T12:09:46;99807.16;;;23.52;59.26
76011;BME280;64701;43.536;1.478;2022-10-30T12:15:06;99798.47;;;23.95;58.21
76011;BME280;64701;43.536;1.478;2022-10-30T12:17:33;99799.00;;;24.33;57.52
76011;BME280;64701;43.536;1.478;2022-10-30T12:19:58;99798.94;;;24.43;57.16
76011;BME280;64701;43.536;1.478;2022-10-30T12:22:28;99796.25;;;24.38;56.07
76011;BME280;64701;43.536;1.478;2022-10-30T12:24:55;99795.44;;;24.48;57.26
76011;BME280;64701;43.536;1.478;2022-10-30T12:27:21;99791.94;;;24.32;56.70
76011;BME280;64701;43.536;1.478;2022-10-30T12:32:37;99791.13;;;24.31;57.47
76011;BME280;64701;43.536;1.478;2022-10-30T12:35:14;99796.81;;;24.40;58.12
76011;BME280;64701;43.536;1.478;2022-10-30T12:37:41;99783.22;;;24.55;56.76
76011;BME280;64701;43.536;1.478;2022-10-30T12:40:27;99787.47;;;24.76;56.65
76011;BME280;64701;43.536;1.478;2022-10-30T12:43:16;99778.47;;;24.91;54.71
76011;BME280;64701;43.536;1.478;2022-10-30T12:45:40;99777.47;;;25.21;55.58
76011;BME280;64701;43.536;1.478;2022-10-30T12:51:16;99791.59;;;25.18;55.16
76011;BME280;64701;43.536;1.478;2022-10-30T12:56:17;99796.72;;;25.25;54.03
76011;BME280;64701;43.536;1.478;2022-10-30T12:58:53;99796.44;;;25.21;54.94
76011;BME280;64701;43.536;1.478;2022-10-30T13:06:18;99788.22;;;25.36;54.75
76011;BME280;64701;43.536;1.478;2022-10-30T13:11:35;99792.19;;;25.10;53.40
76011;BME280;64701;43.536;1.478;2022-10-30T13:14:03;99787.88;;;25.04;54.19
76011;BME280;64701;43.536;1.478;2022-10-30T13:16:33;99780.06;;;25.02;53.53
76011;BME280;64701;43.536;1.478;2022-10-30T13:19:00;99786.25;;;25.03;53.31
76011;BME280;64701;43.536;1.478;2022-10-30T13:21:29;99784.13;;;25.00;53.16
76011;BME280;64701;43.536;1.478;2022-10-30T13:26:35;99775.53;;;24.83;53.20
76011;BME280;64701;43.536;1.478;2022-10-30T13:29:05;99769.53;;;24.96;53.59
76011;BME280;64701;43.536;1.478;2022-10-30T13:31:37;99766.09;;;25.24;53.22
76011;BME280;64701;43.536;1.478;2022-10-30T13:34:15;99761.66;;;25.38;53.08
76011;BME280;64701;43.536;1.478;2022-10-30T13:36:48;99766.75;;;25.79;53.03
76011;BME280;64701;43.536;1.478;2022-10-30T13:49:48;99778.50;;;25.69;52.60
76011;BME280;64701;43.536;1.478;2022-10-30T13:52:13;99766.72;;;25.50;52.65
76011;BME280;64701;43.536;1.478;2022-10-30T13:57:22;99765.50;;;25.27;53.92
76011;BME280;64701;43.536;1.478;2022-10-30T14:04:58;99755.97;;;24.86;54.09
76011;BME280;64701;43.536;1.478;2022-10-30T14:07:28;99749.78;;;24.80;53.60
76011;BME280;64701;43.536;1.478;2022-10-30T14:12:42;99744.94;;;24.77;54.66
76011;BME280;64701;43.536;1.478;2022-10-30T14:20:35;99740.47;;;24.47;54.10
76011;BME280;64701;43.536;1.478;2022-10-30T14:25:32;99745.41;;;24.35;53.94
76011;BME280;64701;43.536;1.478;2022-10-30T14:27:58;99742.19;;;24.28;53.51
76011;BME280;64701;43.536;1.478;2022-10-30T14:30:23;99737.56;;;24.28;53.46
76011;BME280;64701;43.536;1.478;2022-10-30T14:32:51;99731.91;;;24.15;53.67
76011;BME280;64701;43.536;1.478;2022-10-30T14:35:36;99729.22;;;24.25;54.35
76011;BME280;64701;43.536;1.478;2022-10-30T14:40:36;99722.38;;;24.37;54.21
76011;BME280;64701;43.536;1.478;2022-10-30T14:43:08;99719.94;;;24.41;54.25
76011;BME280;64701;43.536;1.478;2022-10-30T14:45:46;99720.44;;;24.43;54.16
76011;BME280;64701;43.536;1.478;2022-10-30T14:59:07;99708.13;;;24.01;55.15
76011;BME280;64701;43.536;1.478;2022-10-30T15:01:52;99715.19;;;23.97;54.52
76011;BME280;64701;43.536;1.478;2022-10-30T15:09:43;99703.31;;;23.83;55.16
76011;BME280;64701;43.536;1.478;2022-10-30T15:14:59;99697.41;;;23.56;55.37
76011;BME280;64701;43.536;1.478;2022-10-30T15:19:53;99696.06;;;23.48;55.13
76011;BME280;64701;43.536;1.478;2022-10-30T15:22:19;99694.16;;;23.49;55.49
76011;BME280;64701;43.536;1.478;2022-10-30T15:24:45;99700.38;;;23.54;56.38
76011;BME280;64701;43.536;1.478;2022-10-30T15:27:15;99706.59;;;23.50;55.67
76011;BME280;64701;43.536;1.478;2022-10-30T15:29:41;99710.91;;;23.36;55.18
76011;BME280;64701;43.536;1.478;2022-10-30T15:32:18;99703.34;;;23.33;55.93
76011;BME280;64701;43.536;1.478;2022-10-30T15:37:19;99707.69;;;23.24;55.41
76011;BME280;64701;43.536;1.478;2022-10-30T15:39:44;99699.84;;;23.22;56.04
76011;BME280;64701;43.536;1.478;2022-10-30T15:42:10;99705.75;;;23.24;56.31
76011;BME280;64701;43.536;1.478;2022-10-30T15:44:36;99704.69;;;23.20;56.17
76011;BME280;64701;43.536;1.478;2022-10-30T15:47:03;99701.44;;;23.18;55.96
76011;BME280;64701;43.536;1.478;2022-10-30T15:49:32;99700.91;;;23.21;56.85